sensor_id;sensor_type;location;lat;lon;timestamp;P1;durP1;ratioP1;P2;durP2;ratioP2
34030;SDS011;20319;28.466;-16.274;2024-03-02T15:31:19;7.75;;;1.75;;
34030;SDS011;20319;28.466;-16.274;2024-03-02T15:33:45;6.88;;;1.50;;
34030;SDS011;20319;28.466;-16.274;2024-03-02T15:36:10;6.25;;;1.65;;
34030;SDS011;20319;28.466;-16.274;2024-03-02T15:38:36;6.03;;;1.60;;
34030;SDS011;20319;28.466;-16.274;2024-03-02T15:41:03;5.50;;;1.60;;
34030;SDS011;20319;28.466;-16.274;2024-03-02T15:43:31;5.68;;;1.42;;
34030;SDS011;20319;28.466;-16.274;2024-03-02T15:45:57;6.85;;;2.08;;
34030;SDS011;20319;28.466;-16.274;2024-03-02T15:48:23;2.90;;;1.23;;
34030;SDS011;20319;28.466;-16.274;2024-03-02T15:50:49;5.97;;;1.80;;
34030;SDS011;20319;28.466;-16.274;2024-03-02T15:53:18;8.80;;;1.80;;
34030;SDS011;20319;28.466;-16.274;2024-03-02T15:55:43;4.90;;;1.70;;
34030;SDS011;20319;28.466;-16.274;2024-03-02T15:58:09;7.13;;;1.77;;
34030;SDS011;20319;28.466;-16.274;2024-03-02T16:00:34;4.88;;;1.50;;
34030;SDS011;20319;28.466;-16.274;2024-03-02T16:03:00;5.18;;;1.45;;
34030;SDS011;20319;28.466;-16.274;2024-03-02T16:05:26;6.90;;;2.17;;
34030;SDS011;20319;28.466;-16.274;2024-03-02T16:07:51;6.75;;;1.67;;
34030;SDS011;20319;28.466;-16.274;2024-03-02T16:10:17;3.80;;;1.40;;
34030;SDS011;20319;28.466;-16.274;2024-03-02T16:12:42;4.28;;;1.73;;
34030;SDS011;20319;28.466;-16.274;2024-03-02T16:15:08;7.70;;;1.90;;
34030;SDS011;20319;28.466;-16.274;2024-03-02T16:17:34;5.50;;;1.98;;
34030;SDS011;20319;28.466;-16.274;2024-03-02T16:20:01;6.75;;;1.60;;
34030;SDS011;20319;28.466;-16.274;2024-03-02T16:22:31;6.63;;;1.90;;
34030;SDS011;20319;28.466;-16.274;2024-03-02T16:24:57;6.72;;;1.50;;
34030;SDS011;20319;28.466;-16.274;2024-03-02T16:27:23;10.02;;;1.83;;
34030;SDS011;20319;28.466;-16.274;2024-03-02T16:29:49;9.25;;;1.88;;
34030;SDS011;20319;28.466;-16.274;2024-03-02T16:32:15;6.63;;;1.80;;
34030;SDS011;20319;28.466;-16.274;2024-03-02T16:34:41;8.43;;;2.05;;
34030;SDS011;20319;28.466;-16.274;2024-03-02T16:37:06;6.63;;;1.83;;
34030;SDS011;20319;28.466;-16.274;2024-03-02T16:39:32;4.18;;;1.38;;
34030;SDS011;20319;28.466;-16.274;2024-03-02T16:41:58;4.63;;;1.23;;
34030;SDS011;20319;28.466;-16.274;2024-03-02T16:44:23;3.00;;;1.40;;
34030;SDS011;20319;28.466;-16.274;2024-03-02T16:46:49;8.82;;;1.90;;
34030;SDS011;20319;28.466;-16.274;2024-03-02T16:49:14;6.65;;;2.30;;
34030;SDS011;20319;28.466;-16.274;2024-03-02T16:51:43;8.40;;;1.90;;
34030;SDS011;20319;28.466;-16.274;2024-03-02T16:54:09;4.20;;;1.45;;
34030;SDS011;20319;28.466;-16.274;2024-03-02T16:56:41;10.10;;;1.80;;
34030;SDS011;20319;28.466;-16.274;2024-03-02T21:31:15;11.02;;;2.65;;
34030;SDS011;20319;28.466;-16.274;2024-03-02T21:33:41;16.55;;;3.08;;
34030;SDS011;20319;28.466;-16.274;2024-03-02T21:36:07;10.93;;;2.70;;
34030;SDS011;20319;28.466;-16.274;2024-03-02T21:38:33;14.18;;;3.25;;
34030;SDS011;20319;28.466;-16.274;2024-03-02T21:40:58;15.73;;;4.05;;
34030;SDS011;20319;28.466;-16.274;2024-03-02T21:43:24;13.57;;;2.78;;
34030;SDS011;20319;28.466;-16.274;2024-03-02T21:45:51;14.23;;;2.53;;
34030;SDS011;20319;28.466;-16.274;2024-03-02T21:48:16;11.95;;;2.88;;
34030;SDS011;20319;28.466;-16.274;2024-03-02T21:50:42;17.52;;;3.55;;
34030;SDS011;20319;28.466;-16.274;2024-03-02T21:53:08;13.73;;;2.70;;
34030;SDS011;20319;28.466;-16.274;2024-03-02T21:55:34;13.25;;;3.25;;
34030;SDS011;20319;28.466;-16.274;2024-03-02T21:58:00;11.27;;;2.45;;
34030;SDS011;20319;28.466;-16.274;2024-03-02T22:00:25;8.32;;;2.65;;
34030;SDS011;20319;28.466;-16.274;2024-03-02T22:02:51;9.85;;;2.80;;
34030;SDS011;20319;28.466;-16.274;2024-03-02T22:05:16;10.20;;;2.75;;
34030;SDS011;20319;28.466;-16.274;2024-03-02T22:07:43;20.60;;;4.35;;
34030;SDS011;20319;28.466;-16.274;2024-03-02T22:10:09;20.17;;;3.38;;
34030;SDS011;20319;28.466;-16.274;2024-03-02T22:12:34;16.15;;;2.80;;
34030;SDS011;20319;28.466;-16.274;2024-03-02T22:15:00;17.20;;;3.35;;
34030;SDS011;20319;28.466;-16.274;2024-03-02T22:17:25;14.07;;;2.75;;
34030;SDS011;20319;28.466;-16.274;2024-03-02T22:19:53;14.52;;;3.92;;
34030;SDS011;20319;28.466;-16.274;2024-03-02T22:22:19;16.80;;;3.40;;
34030;SDS011;20319;28.466;-16.274;2024-03-02T22:24:44;17.17;;;3.03;;
34030;SDS011;20319;28.466;-16.274;2024-03-02T22:27:10;11.98;;;2.78;;
34030;SDS011;20319;28.466;-16.274;2024-03-02T22:29:35;16.08;;;3.17;;
34030;SDS011;20319;28.466;-16.274;2024-03-02T22:32:01;14.98;;;3.28;;
34030;SDS011;20319;28.466;-16.274;2024-03-02T22:34:27;16.10;;;3.00;;
34030;SDS011;20319;28.466;-16.274;2024-03-02T22:36:53;13.77;;;2.90;;
34030;SDS011;20319;28.466;-16.274;2024-03-02T22:39:18;13.43;;;2.97;;
34030;SDS011;20319;28.466;-16.274;2024-03-02T22:41:44;17.55;;;2.83;;
34030;SDS011;20319;28.466;-16.274;2024-03-02T22:44:09;14.02;;;3.25;;
34030;SDS011;20319;28.466;-16.274;2024-03-02T22:46:35;14.00;;;3.58;;
34030;SDS011;20319;28.466;-16.274;2024-03-02T22:49:00;16.20;;;2.95;;
34030;SDS011;20319;28.466;-16.274;2024-03-02T22:51:26;16.48;;;3.10;;
34030;SDS011;20319;28.466;-16.274;2024-03-02T22:53:52;9.63;;;3.08;;
